Time;durP1;ratioP1;P1;durP2;ratioP2;P2;SDS_P1;SDS_P2;PMS_P1;PMS_P2;Temp;Humidity;BMP_temperature;BMP_pressure;BME280_temperature;BME280_humidity;BME280_pressure;Samples;Min_cycle;Max_cycle;Signal;HPM_P1;HPM_P2
2022/07/06 00:00:33;;;;;;;10.35;6.13;;;15.40;99.90;;;;;;4993050;28;20040;-74
2022/07/06 00:02:59;;;;;;;11.02;5.97;;;15.40;99.90;;;;;;4990350;28;20034;-74
2022/07/06 00:05:25;;;;;;;11.27;5.72;;;15.30;99.90;;;;;;4989620;28;20041;-74
2022/07/06 00:07:51;;;;;;;8.75;5.30;;;15.40;99.90;;;;;;4990234;28;20076;-74
2022/07/06 00:10:16;;;;;;;9.43;4.63;;;15.30;99.90;;;;;;4981396;28;20045;-74
2022/07/06 00:12:42;;;;;;;7.22;3.88;;;15.30;99.90;;;;;;4995778;28;20038;-74
2022/07/06 00:15:08;;;;;;;7.43;3.80;;;15.30;99.90;;;;;;4979701;28;20041;-74
2022/07/06 00:17:34;;;;;;;6.32;3.65;;;15.30;99.90;;;;;;4983545;28;20416;-73
2022/07/06 00:20:00;;;;;;;6.20;3.28;;;15.40;99.90;;;;;;4991427;28;20587;-74
2022/07/06 00:22:25;;;;;;;5.95;3.28;;;15.30;99.90;;;;;;4991312;28;20432;-74
2022/07/06 00:24:51;;;;;;;7.10;3.35;;;15.30;99.90;;;;;;4986390;28;20030;-73
2022/07/06 00:27:17;;;;;;;6.40;3.00;;;15.30;99.90;;;;;;4992630;28;20030;-74
2022/07/06 00:29:43;;;;;;;4.65;2.85;;;15.30;99.90;;;;;;4991342;28;20035;-74
2022/07/06 00:32:10;;;;;;;7.22;3.22;;;15.30;99.90;;;;;;4995224;28;20054;-74
2022/07/06 00:34:36;;;;;;;6.20;3.17;;;15.30;99.90;;;;;;4992185;28;20026;-74
2022/07/06 00:37:01;;;;;;;6.90;3.13;;;15.30;99.90;;;;;;4980155;28;20046;-74
2022/07/06 00:39:29;;;;;;;5.85;3.10;;;15.30;99.90;;;;;;4993781;28;20027;-74
2022/07/06 00:41:56;;;;;;;8.50;3.10;;;15.30;99.90;;;;;;4994045;28;20038;-74
2022/07/06 00:44:21;;;;;;;5.38;2.97;;;15.30;99.90;;;;;;4990877;28;20034;-74
2022/07/06 00:46:47;;;;;;;6.43;2.95;;;15.30;99.90;;;;;;4995934;28;20027;-74
2022/07/06 00:51:59;;;;;;;5.75;2.88;;;15.20;99.90;;;;;;4957408;28;20568;-75
2022/07/06 00:54:26;;;;;;;5.80;3.30;;;15.20;99.90;;;;;;4991478;28;20117;-75
2022/07/06 00:56:52;;;;;;;7.05;2.80;;;15.20;99.90;;;;;;4990160;28;20031;-75
2022/07/06 00:59:18;;;;;;;6.90;2.88;;;15.30;99.90;;;;;;4981944;28;20362;-74
2022/07/06 01:01:44;;;;;;;3.83;2.47;;;15.20;99.90;;;;;;4995486;28;20892;-75
2022/07/06 01:04:09;;;;;;;5.43;2.85;;;15.20;99.90;;;;;;4988449;28;20038;-75
2022/07/06 01:06:35;;;;;;;7.25;2.83;;;15.20;99.90;;;;;;4989697;28;20041;-75
2022/07/06 01:09:01;;;;;;;5.07;2.75;;;15.20;99.90;;;;;;4989005;28;20750;-75
2022/07/06 01:11:27;;;;;;;5.47;2.90;;;15.20;99.90;;;;;;4989785;28;20493;-75
2022/07/06 01:13:55;;;;;;;7.30;3.15;;;15.20;99.90;;;;;;4982657;28;20030;-75
2022/07/06 01:16:21;;;;;;;4.68;2.90;;;15.10;99.90;;;;;;4983890;28;20045;-75
2022/07/06 01:18:47;;;;;;;5.80;2.97;;;15.10;99.90;;;;;;4992260;28;20031;-74
2022/07/06 01:21:15;;;;;;;6.20;3.03;;;15.00;99.90;;;;;;4979073;28;20061;-75
2022/07/06 01:23:45;;;;;;;5.13;2.63;;;15.00;99.90;;;;;;4992344;28;20073;-75
2022/07/06 01:26:14;;;;;;;5.03;3.10;;;15.00;99.90;;;;;;4993590;28;20373;-74
2022/07/06 01:28:40;;;;;;;5.88;2.97;;;14.90;99.90;;;;;;4984761;28;20801;-74
2022/07/06 01:31:21;;;;;;;4.95;2.70;;;14.90;99.90;;;;;;4983486;28;20497;-74
2022/07/06 01:33:49;;;;;;;6.00;2.53;;;14.90;99.90;;;;;;4993518;28;20076;-75
2022/07/06 01:36:15;;;;;;;7.18;2.90;;;15.00;99.90;;;;;;4988844;28;20031;-74
2022/07/06 01:38:54;;;;;;;4.50;2.30;;;14.90;99.90;;;;;;4983892;28;20073;-75
2022/07/06 01:41:21;;;;;;;5.65;2.75;;;15.00;99.90;;;;;;4985180;28;21710;-75
2022/07/06 01:43:47;;;;;;;5.07;2.40;;;14.90;99.90;;;;;;4991791;28;20475;-75
2022/07/06 01:46:14;;;;;;;6.43;2.70;;;14.90;99.90;;;;;;4989143;28;20035;-74
2022/07/06 01:48:39;;;;;;;5.78;2.90;;;14.90;99.90;;;;;;4979986;28;20030;-75
2022/07/06 01:51:05;;;;;;;7.00;3.28;;;14.90;99.90;;;;;;4988023;28;20037;-75
2022/07/06 01:53:31;;;;;;;5.35;2.65;;;14.90;99.90;;;;;;4992477;28;20034;-74
2022/07/06 01:55:57;;;;;;;4.80;2.70;;;14.90;99.90;;;;;;4998324;28;20036;-75
2022/07/06 01:58:22;;;;;;;5.97;3.05;;;14.90;99.90;;;;;;4974495;28;20120;-75
2022/07/06 02:00:48;;;;;;;5.55;3.10;;;14.80;99.90;;;;;;5013529;28;20042;-75
2022/07/06 02:03:14;;;;;;;8.35;3.10;;;14.80;99.90;;;;;;4978975;28;20038;-75
2022/07/06 02:05:39;;;;;;;7.68;3.30;;;14.80;99.90;;;;;;4990161;28;20038;-75
2022/07/06 02:08:05;;;;;;;5.63;3.08;;;14.70;99.90;;;;;;4988133;28;20065;-75
2022/07/06 02:10:31;;;;;;;6.20;2.85;;;14.60;99.90;;;;;;4988187;28;20484;-74
2022/07/06 02:12:56;;;;;;;5.72;2.83;;;14.60;99.90;;;;;;4991761;28;20361;-75
2022/07/06 02:15:22;;;;;;;6.00;3.03;;;14.60;99.90;;;;;;4986066;28;20038;-75
2022/07/06 02:17:48;;;;;;;8.23;3.42;;;14.50;99.90;;;;;;4979241;28;20065;-74
2022/07/06 02:20:13;;;;;;;6.05;3.08;;;14.50;99.90;;;;;;4990117;28;20041;-75
2022/07/06 02:22:39;;;;;;;5.05;3.05;;;14.40;99.90;;;;;;4994775;28;20038;-74
2022/07/06 02:25:05;;;;;;;6.05;2.90;;;14.30;99.90;;;;;;4993191;28;20041;-74
2022/07/06 02:27:31;;;;;;;6.80;3.10;;;14.30;99.90;;;;;;5014347;28;20088;-74
2022/07/06 02:29:57;;;;;;;6.57;3.10;;;14.30;99.90;;;;;;4974873;28;20037;-74
2022/07/06 02:32:22;;;;;;;7.95;3.17;;;14.30;99.90;;;;;;4989089;28;20223;-74
2022/07/06 02:34:48;;;;;;;6.85;3.38;;;14.20;99.90;;;;;;4992014;28;20030;-74
2022/07/06 02:37:14;;;;;;;6.60;3.50;;;14.20;99.90;;;;;;4990848;28;20070;-73
2022/07/06 02:39:40;;;;;;;6.95;3.22;;;14.20;99.90;;;;;;4986822;28;20481;-75
2022/07/06 02:42:06;;;;;;;6.28;3.45;;;14.10;99.90;;;;;;4993198;28;20038;-73
2022/07/06 02:44:32;;;;;;;5.70;3.38;;;14.10;99.90;;;;;;4993436;28;20057;-74
2022/07/06 02:46:57;;;;;;;7.53;3.42;;;14.20;99.90;;;;;;4991702;28;20026;-74
2022/07/06 02:49:23;;;;;;;6.88;3.38;;;14.10;99.90;;;;;;4991367;28;20571;-75
2022/07/06 02:51:49;;;;;;;6.57;3.28;;;14.10;99.90;;;;;;4992077;28;20759;-74
2022/07/06 02:54:14;;;;;;;6.47;3.42;;;14.00;99.90;;;;;;4976760;28;20763;-73
2022/07/06 02:56:40;;;;;;;5.85;3.30;;;14.00;99.90;;;;;;4988484;28;20022;-74
2022/07/06 02:59:05;;;;;;;5.50;3.20;;;14.00;99.90;;;;;;4979275;28;20045;-74
2022/07/06 03:01:31;;;;;;;7.20;3.50;;;13.90;99.90;;;;;;4992953;28;20039;-74
2022/07/06 03:03:57;;;;;;;5.68;2.85;;;13.90;99.90;;;;;;4991944;28;20030;-74
2022/07/06 03:06:22;;;;;;;4.97;3.10;;;13.90;99.90;;;;;;4976900;28;20062;-73
2022/07/06 03:08:48;;;;;;;6.03;3.25;;;13.90;99.90;;;;;;4988113;28;20026;-74
2022/07/06 03:11:14;;;;;;;7.53;3.20;;;13.80;99.90;;;;;;4987681;28;20034;-74
2022/07/06 03:13:39;;;;;;;5.22;2.78;;;13.80;99.90;;;;;;5010047;28;20022;-73
2022/07/06 03:16:05;;;;;;;4.68;2.70;;;13.80;99.90;;;;;;4986589;28;20034;-73
2022/07/06 03:18:30;;;;;;;5.72;2.88;;;13.80;99.90;;;;;;4990048;28;20038;-74
2022/07/06 03:20:56;;;;;;;6.32;3.05;;;13.80;99.90;;;;;;4989174;28;20034;-74
2022/07/06 03:23:22;;;;;;;6.18;2.88;;;13.80;99.90;;;;;;4974315;28;20041;-73
2022/07/06 03:25:47;;;;;;;5.97;2.90;;;13.70;99.90;;;;;;4987723;28;20093;-73
2022/07/06 03:28:13;;;;;;;5.45;2.90;;;13.70;99.90;;;;;;4978870;28;20030;-74
2022/07/06 03:30:39;;;;;;;5.22;2.88;;;13.60;99.90;;;;;;4987022;28;20130;-74
2022/07/06 03:33:04;;;;;;;5.85;2.83;;;13.60;99.90;;;;;;4987821;28;20058;-74
2022/07/06 03:35:30;;;;;;;6.57;3.22;;;13.60;99.90;;;;;;4982779;28;20040;-74
2022/07/06 03:37:56;;;;;;;5.47;2.80;;;13.60;99.90;;;;;;4983069;28;20034;-74
2022/07/06 03:40:21;;;;;;;6.90;3.35;;;13.50;99.90;;;;;;4986773;28;20531;-73
2022/07/06 03:42:47;;;;;;;6.13;2.92;;;13.50;99.90;;;;;;4987233;28;20038;-73
2022/07/06 03:45:13;;;;;;;5.10;3.00;;;13.50;99.90;;;;;;4990891;28;20088;-73
2022/07/06 03:47:38;;;;;;;5.15;2.63;;;13.50;99.90;;;;;;4987204;28;20045;-73
2022/07/06 03:50:04;;;;;;;6.57;3.13;;;13.40;99.90;;;;;;4980707;28;20661;-73
2022/07/06 03:52:30;;;;;;;7.68;3.55;;;13.40;99.90;;;;;;4988066;28;20030;-73
2022/07/06 03:54:56;;;;;;;6.40;3.25;;;13.40;99.90;;;;;;4993193;28;20035;-75
2022/07/06 03:57:22;;;;;;;6.63;3.10;;;13.40;99.90;;;;;;4987958;28;20026;-73
2022/07/06 03:59:48;;;;;;;7.82;3.28;;;13.30;99.90;;;;;;4991173;28;20040;-73
2022/07/06 04:02:13;;;;;;;6.30;3.17;;;13.30;99.90;;;;;;4986645;28;20038;-72
2022/07/06 04:04:39;;;;;;;8.77;2.83;;;13.30;99.90;;;;;;4986493;28;20109;-74
2022/07/06 04:07:05;;;;;;;6.90;2.90;;;13.30;99.90;;;;;;4994694;28;20108;-74
2022/07/06 04:09:30;;;;;;;8.68;3.53;;;13.20;99.90;;;;;;5008414;28;20129;-74
2022/07/06 04:11:56;;;;;;;6.43;2.95;;;13.30;99.90;;;;;;4994635;28;20037;-73
2022/07/06 04:14:22;;;;;;;7.80;3.35;;;13.20;99.90;;;;;;4995156;28;20038;-74
2022/07/06 04:16:48;;;;;;;7.90;3.20;;;13.20;99.90;;;;;;4994810;28;20860;-74
2022/07/06 04:19:14;;;;;;;6.90;3.30;;;13.20;99.90;;;;;;4992870;28;20062;-75
2022/07/06 04:21:40;;;;;;;6.43;3.25;;;13.20;99.90;;;;;;4994733;28;20659;-74
2022/07/06 04:24:06;;;;;;;5.82;3.15;;;13.20;99.90;;;;;;4992873;28;20117;-74
2022/07/06 04:26:31;;;;;;;6.88;2.80;;;13.20;99.90;;;;;;4975799;28;20128;-74
2022/07/06 04:28:57;;;;;;;6.00;2.83;;;13.10;99.90;;;;;;5002329;28;20090;-74
2022/07/06 04:31:22;;;;;;;7.50;3.30;;;13.10;99.90;;;;;;4991332;28;20113;-74
2022/07/06 04:33:48;;;;;;;6.80;2.90;;;13.10;99.90;;;;;;4995655;28;20141;-74
2022/07/06 04:36:14;;;;;;;7.35;3.00;;;13.10;99.90;;;;;;4991889;28;20053;-74
2022/07/06 04:38:39;;;;;;;5.65;3.05;;;13.00;99.90;;;;;;4990499;28;20034;-74
2022/07/06 04:41:05;;;;;;;7.22;3.30;;;13.00;99.90;;;;;;4990901;28;20042;-74
2022/07/06 04:43:31;;;;;;;6.45;3.10;;;13.00;99.90;;;;;;4978868;28;20505;-75
2022/07/06 04:45:57;;;;;;;8.20;3.20;;;13.00;99.90;;;;;;4994020;28;20041;-75
2022/07/06 04:48:22;;;;;;;6.20;2.80;;;12.90;99.90;;;;;;4991863;28;20045;-75
2022/07/06 04:50:48;;;;;;;6.28;2.67;;;13.00;99.90;;;;;;4989500;28;20093;-75
2022/07/06 04:53:14;;;;;;;6.22;3.05;;;12.90;99.90;;;;;;4989669;28;20122;-74
2022/07/06 04:55:39;;;;;;;6.45;2.78;;;13.00;99.90;;;;;;4987948;28;20030;-75
2022/07/06 04:58:05;;;;;;;6.57;2.80;;;13.00;99.90;;;;;;4988479;28;20026;-75
2022/07/06 05:00:31;;;;;;;6.63;3.15;;;13.00;99.90;;;;;;4977240;28;20038;-75
2022/07/06 05:02:57;;;;;;;5.60;2.45;;;13.00;99.90;;;;;;4975945;28;20473;-75
2022/07/06 05:05:22;;;;;;;5.05;2.53;;;13.10;99.90;;;;;;4990108;28;20484;-75
2022/07/06 05:07:48;;;;;;;6.88;2.97;;;13.10;99.90;;;;;;4993880;28;20033;-75
2022/07/06 05:10:14;;;;;;;6.80;3.00;;;13.10;99.90;;;;;;4989963;28;20811;-75
2022/07/06 05:12:40;;;;;;;4.80;2.53;;;13.10;99.90;;;;;;4990433;28;20082;-75
2022/07/06 05:15:06;;;;;;;5.75;2.53;;;13.20;99.90;;;;;;4993933;28;20026;-76
2022/07/06 05:17:32;;;;;;;5.55;2.30;;;13.30;99.90;;;;;;4989835;28;20038;-75
2022/07/06 05:19:58;;;;;;;5.07;2.50;;;13.30;99.90;;;;;;4979737;28;20037;-75
2022/07/06 05:22:24;;;;;;;5.63;2.08;;;13.40;99.90;;;;;;4988904;28;20034;-75
2022/07/06 05:24:50;;;;;;;4.82;2.10;;;13.40;99.90;;;;;;4992583;28;20070;-75
2022/07/06 05:27:16;;;;;;;5.68;2.00;;;13.50;99.90;;;;;;4994881;28;20034;-76
2022/07/06 05:29:42;;;;;;;6.15;2.47;;;13.50;99.90;;;;;;4983827;28;20038;-74
2022/07/06 05:32:07;;;;;;;6.88;2.40;;;13.50;99.90;;;;;;4975574;28;20050;-76
2022/07/06 05:34:33;;;;;;;6.13;2.22;;;13.60;99.90;;;;;;4977845;28;20452;-75
2022/07/06 05:36:59;;;;;;;3.85;1.88;;;13.70;99.90;;;;;;4999021;28;20037;-75
2022/07/06 05:39:24;;;;;;;7.40;2.50;;;13.70;99.90;;;;;;4979051;28;20096;-75
2022/07/06 05:41:50;;;;;;;6.75;2.45;;;13.70;99.90;;;;;;4984257;28;20034;-75
2022/07/06 05:44:16;;;;;;;7.18;2.63;;;13.80;99.90;;;;;;4999094;28;20035;-75
2022/07/06 05:46:42;;;;;;;8.48;3.03;;;13.90;99.90;;;;;;4995181;28;20042;-74
2022/07/06 05:51:51;;;;;;;5.28;2.90;;;14.00;99.90;;;;;;4983641;28;20617;-74
2022/07/06 05:54:17;;;;;;;8.07;3.00;;;14.00;99.90;;;;;;4988618;28;20034;-74
2022/07/06 05:56:43;;;;;;;6.53;3.05;;;14.10;99.90;;;;;;4987742;28;20030;-74
2022/07/06 05:59:08;;;;;;;7.72;3.53;;;14.20;99.90;;;;;;4987644;28;20107;-75
2022/07/06 06:01:34;;;;;;;7.50;3.70;;;14.20;99.90;;;;;;4988515;28;20193;-74
2022/07/06 06:04:00;;;;;;;7.65;3.83;;;14.30;99.90;;;;;;4999366;28;20400;-74
2022/07/06 06:06:26;;;;;;;8.48;3.65;;;14.30;99.90;;;;;;4986309;28;20033;-74
2022/07/06 06:08:52;;;;;;;8.13;3.95;;;14.40;99.90;;;;;;4986233;28;20057;-76
2022/07/06 06:11:18;;;;;;;8.52;4.00;;;14.40;99.90;;;;;;4989026;28;20034;-75
2022/07/06 06:13:43;;;;;;;7.88;4.53;;;14.50;99.90;;;;;;4988402;28;20036;-74
2022/07/06 06:16:09;;;;;;;9.30;3.83;;;14.60;99.90;;;;;;4972540;28;20034;-74
2022/07/06 06:18:35;;;;;;;6.70;3.70;;;14.70;99.90;;;;;;4989201;28;20042;-74
2022/07/06 06:21:01;;;;;;;7.80;3.80;;;14.70;99.90;;;;;;4978781;28;20045;-74
2022/07/06 06:23:26;;;;;;;5.70;3.05;;;14.80;99.90;;;;;;4986491;28;20040;-75
2022/07/06 06:25:52;;;;;;;6.75;3.22;;;15.00;99.90;;;;;;4970811;28;20140;-75
2022/07/06 06:28:18;;;;;;;9.95;3.33;;;15.10;99.90;;;;;;4979374;28;20137;-75
2022/07/06 06:30:43;;;;;;;6.95;2.90;;;15.20;99.90;;;;;;4987931;28;20050;-75
2022/07/06 06:33:20;;;;;;;6.90;2.47;;;15.30;99.90;;;;;;4989188;28;20035;-75
2022/07/06 06:35:51;;;;;;;7.90;2.60;;;15.40;99.90;;;;;;4970214;28;20037;-76
2022/07/06 06:38:19;;;;;;;5.57;2.28;;;15.40;99.90;;;;;;4985648;28;20497;-75
2022/07/06 06:40:44;;;;;;;7.82;2.40;;;15.50;99.90;;;;;;4972076;28;20499;-75
2022/07/06 06:43:10;;;;;;;7.20;2.65;;;15.50;99.90;;;;;;4974606;28;20042;-75
2022/07/06 06:45:36;;;;;;;5.55;2.60;;;15.50;99.90;;;;;;4972473;28;20492;-75
2022/07/06 06:48:02;;;;;;;8.93;2.83;;;15.50;99.90;;;;;;4972094;28;20041;-75
2022/07/06 06:50:28;;;;;;;8.20;2.90;;;15.50;99.90;;;;;;4985283;28;20034;-76
2022/07/06 06:52:54;;;;;;;6.53;2.67;;;15.50;99.90;;;;;;4985864;28;20038;-75
2022/07/06 06:55:19;;;;;;;9.25;2.90;;;15.50;99.90;;;;;;4982892;28;20052;-75
2022/07/06 06:57:45;;;;;;;7.05;2.55;;;15.50;99.90;;;;;;4986210;28;20089;-75
2022/07/06 07:00:12;;;;;;;7.65;2.90;;;15.50;99.90;;;;;;4985787;28;20059;-75
2022/07/06 07:02:38;;;;;;;6.95;3.03;;;15.60;99.90;;;;;;4995256;28;20085;-76
2022/07/06 07:05:05;;;;;;;8.32;2.42;;;15.60;99.90;;;;;;4971993;28;20561;-75
2022/07/06 07:07:31;;;;;;;8.48;2.83;;;15.70;99.90;;;;;;4980034;28;20929;-74
2022/07/06 07:09:57;;;;;;;5.85;2.83;;;15.70;99.90;;;;;;4974599;28;20696;-76
2022/07/06 07:12:23;;;;;;;5.60;2.67;;;15.70;99.90;;;;;;4988333;28;20516;-75
2022/07/06 07:14:49;;;;;;;8.13;2.83;;;15.70;99.90;;;;;;4978015;28;20037;-75
2022/07/06 07:17:14;;;;;;;7.10;2.67;;;15.80;99.90;;;;;;4987844;28;20030;-75
2022/07/06 07:19:40;;;;;;;7.53;2.80;;;16.00;99.90;;;;;;4990406;28;20031;-75
2022/07/06 07:22:06;;;;;;;7.95;2.50;;;16.10;99.90;;;;;;4987326;28;20046;-75
2022/07/06 07:24:32;;;;;;;4.53;2.13;;;16.20;99.90;;;;;;5002340;28;20123;-76
2022/07/06 07:26:58;;;;;;;6.65;2.58;;;16.20;99.90;;;;;;4988745;28;20053;-75
2022/07/06 07:29:23;;;;;;;6.93;2.40;;;16.30;99.90;;;;;;4991069;28;20042;-75
2022/07/06 07:31:49;;;;;;;6.20;2.60;;;16.50;99.90;;;;;;4990688;28;20152;-75
2022/07/06 07:34:16;;;;;;;7.50;2.70;;;16.60;99.90;;;;;;4989778;28;20058;-75
2022/07/06 07:36:41;;;;;;;6.78;2.70;;;16.80;99.90;;;;;;4990497;28;20026;-76
2022/07/06 07:39:07;;;;;;;7.20;2.63;;;16.90;99.90;;;;;;4992019;28;20044;-75
2022/07/06 07:41:33;;;;;;;8.18;2.58;;;17.10;99.90;;;;;;4991826;28;20113;-75
2022/07/06 07:43:58;;;;;;;6.63;3.25;;;17.20;99.90;;;;;;4991899;28;20106;-75
2022/07/06 07:46:24;;;;;;;5.82;2.40;;;17.40;99.90;;;;;;5006715;28;20092;-74
2022/07/06 07:48:49;;;;;;;6.03;2.53;;;17.50;99.90;;;;;;4991896;28;20258;-74
2022/07/06 07:51:15;;;;;;;6.25;2.63;;;17.60;99.90;;;;;;4991364;28;20030;-75
2022/07/06 07:53:41;;;;;;;5.72;2.75;;;17.70;99.90;;;;;;4974280;28;20133;-75
2022/07/06 07:56:07;;;;;;;5.72;2.58;;;17.80;99.90;;;;;;4991937;28;20072;-74
2022/07/06 07:58:32;;;;;;;7.28;2.67;;;17.90;99.90;;;;;;4977787;28;20048;-75
2022/07/06 08:00:58;;;;;;;7.15;2.90;;;18.00;99.90;;;;;;4981997;28;20037;-75
2022/07/06 08:03:24;;;;;;;8.52;3.05;;;18.10;99.90;;;;;;4989956;28;20783;-73
2022/07/06 08:05:50;;;;;;;7.95;3.33;;;18.30;99.90;;;;;;4990202;28;20042;-75
2022/07/06 08:08:16;;;;;;;8.27;4.20;;;18.60;99.90;;;;;;4991498;28;20030;-74
2022/07/06 08:10:42;;;;;;;10.18;4.93;;;18.70;99.90;;;;;;4990086;28;20429;-73
2022/07/06 08:13:07;;;;;;;8.80;5.00;;;18.80;99.90;;;;;;4991393;28;20038;-74
2022/07/06 08:15:34;;;;;;;8.27;5.50;;;18.80;99.90;;;;;;4991131;28;20117;-75
2022/07/06 08:18:00;;;;;;;10.75;5.82;;;18.80;99.90;;;;;;4991187;28;20050;-76
2022/07/06 08:20:25;;;;;;;9.68;5.95;;;18.80;99.90;;;;;;4991108;28;20066;-76
2022/07/06 08:22:51;;;;;;;8.88;6.10;;;18.80;99.90;;;;;;5009304;28;20041;-75
2022/07/06 08:25:17;;;;;;;9.60;6.05;;;18.80;99.90;;;;;;4995586;28;20042;-76
2022/07/06 08:27:43;;;;;;;10.57;5.97;;;18.90;99.90;;;;;;4987597;28;20554;-75
2022/07/06 08:30:10;;;;;;;10.23;6.32;;;18.90;99.90;;;;;;4991812;28;20039;-75
2022/07/06 08:32:40;;;;;;;11.15;6.65;;;19.00;99.90;;;;;;4990706;28;20038;-75
2022/07/06 08:35:06;;;;;;;11.48;6.50;;;19.00;99.90;;;;;;4990920;28;20046;-75
2022/07/06 08:37:32;;;;;;;13.88;7.15;;;19.10;99.90;;;;;;4989149;28;20069;-75
2022/07/06 08:39:57;;;;;;;10.55;6.45;;;19.10;99.90;;;;;;4991102;28;20117;-76
2022/07/06 08:42:33;;;;;;;11.32;7.22;;;19.20;99.90;;;;;;4989069;28;20066;-76
2022/07/06 08:45:01;;;;;;;13.57;8.25;;;19.30;99.90;;;;;;4990390;28;20046;-76
2022/07/06 08:47:28;;;;;;;12.32;8.10;;;19.30;99.90;;;;;;4990612;28;20716;-76
2022/07/06 08:49:54;;;;;;;12.73;8.10;;;19.40;99.90;;;;;;4982930;28;20034;-76
2022/07/06 08:52:22;;;;;;;11.68;8.52;;;19.40;99.90;;;;;;4971325;28;20034;-76
2022/07/06 08:54:48;;;;;;;14.82;9.55;;;19.30;99.90;;;;;;4990959;28;20034;-76
2022/07/06 08:57:15;;;;;;;13.75;9.98;;;19.30;99.90;;;;;;4990458;28;20456;-75
2022/07/06 08:59:40;;;;;;;13.80;9.57;;;19.30;99.90;;;;;;4990226;28;20448;-76
2022/07/06 09:02:06;;;;;;;12.10;9.82;;;19.30;99.90;;;;;;5005188;28;20500;-75
2022/07/06 09:04:33;;;;;;;12.68;10.18;;;19.30;99.90;;;;;;4990145;28;20042;-75
2022/07/06 09:06:59;;;;;;;15.93;10.60;;;19.40;99.90;;;;;;4988867;28;20038;-76
2022/07/06 09:09:28;;;;;;;15.85;10.93;;;19.50;99.90;;;;;;4990132;28;20053;-77
2022/07/06 09:11:54;;;;;;;15.30;10.30;;;19.60;99.90;;;;;;4989038;28;20049;-76
2022/07/06 09:14:20;;;;;;;15.38;11.27;;;19.70;99.90;;;;;;4988236;28;20038;-76
2022/07/06 09:16:47;;;;;;;12.50;9.00;;;19.90;99.90;;;;;;4990172;28;20065;-76
2022/07/06 09:19:13;;;;;;;13.27;9.55;;;20.10;99.90;;;;;;4990386;28;20858;-75
2022/07/06 09:21:41;;;;;;;12.32;9.10;;;20.30;99.40;;;;;;4989968;28;20080;-77
2022/07/06 09:24:12;;;;;;;13.52;8.90;;;20.30;99.30;;;;;;4990025;28;20093;-76
2022/07/06 09:26:40;;;;;;;13.20;8.65;;;20.30;99.70;;;;;;4988419;28;20045;-76
2022/07/06 09:29:07;;;;;;;10.35;7.63;;;20.10;99.80;;;;;;4990235;28;20087;-75
2022/07/06 09:31:33;;;;;;;10.32;7.95;;;20.00;99.90;;;;;;4989771;28;20197;-75
2022/07/06 09:34:10;;;;;;;11.07;8.30;;;20.00;99.90;;;;;;5005065;28;20064;-75
2022/07/06 09:36:48;;;;;;;11.05;7.55;;;20.10;99.90;;;;;;4989756;28;20206;-73
2022/07/06 09:39:24;;;;;;;9.40;6.90;;;20.20;99.90;;;;;;4989754;28;20084;-75
2022/07/06 09:41:52;;;;;;;10.63;6.70;;;20.30;99.90;;;;;;5004333;28;20042;-76
2022/07/06 09:44:28;;;;;;;11.15;6.97;;;20.50;99.90;;;;;;4988308;28;20488;-75
2022/07/06 09:46:57;;;;;;;10.02;6.95;;;20.70;99.90;;;;;;4988240;28;20062;-76
2022/07/06 09:49:24;;;;;;;9.77;5.70;;;20.70;99.50;;;;;;4989640;28;20034;-75
2022/07/06 09:51:52;;;;;;;7.72;5.57;;;20.60;99.80;;;;;;4989207;28;20038;-75
2022/07/06 09:54:18;;;;;;;9.13;6.28;;;20.60;99.90;;;;;;4998250;28;20044;-74
2022/07/06 09:56:52;;;;;;;7.45;5.38;;;20.60;99.90;;;;;;4989294;28;20042;-77
2022/07/06 09:59:23;;;;;;;7.85;4.80;;;20.60;99.90;;;;;;4989538;28;20551;-77
2022/07/06 10:01:54;;;;;;;6.50;4.03;;;20.60;99.90;;;;;;5004379;28;20084;-77
2022/07/06 10:04:20;;;;;;;6.60;3.78;;;20.60;99.90;;;;;;4989336;28;20034;-76
2022/07/06 10:06:46;;;;;;;6.47;3.50;;;20.70;99.90;;;;;;4989311;28;20702;-75
2022/07/06 10:09:13;;;;;;;6.28;3.45;;;20.80;99.90;;;;;;4987832;28;20057;-74
2022/07/06 10:11:42;;;;;;;5.25;3.10;;;20.90;99.90;;;;;;4989070;28;20165;-75
2022/07/06 10:14:08;;;;;;;5.53;2.80;;;21.00;99.80;;;;;;4987378;28;20035;-75
2022/07/06 10:16:38;;;;;;;5.20;2.92;;;21.20;99.50;;;;;;4989426;28;20086;-76
2022/07/06 10:19:06;;;;;;;5.25;2.90;;;21.40;99.90;;;;;;4989073;28;20080;-76
2022/07/06 10:21:36;;;;;;;5.35;2.33;;;21.40;99.20;;;;;;4989112;28;20038;-75
2022/07/06 10:24:06;;;;;;;3.60;1.70;;;21.50;99.50;;;;;;4989023;28;20034;-76
2022/07/06 10:26:34;;;;;;;3.13;1.80;;;21.70;98.60;;;;;;4988945;28;20145;-75
2022/07/06 10:29:00;;;;;;;3.35;1.73;;;21.70;98.40;;;;;;4988973;28;20034;-75
2022/07/06 10:31:30;;;;;;;3.72;1.63;;;21.60;98.90;;;;;;4989065;28;20105;-75
2022/07/06 10:33:59;;;;;;;3.13;1.83;;;21.60;98.90;;;;;;4988786;28;20087;-76
2022/07/06 10:36:25;;;;;;;3.47;1.70;;;21.70;99.00;;;;;;4987384;28;20676;-76
2022/07/06 10:38:52;;;;;;;3.28;1.75;;;21.70;99.00;;;;;;4988574;28;20045;-78
2022/07/06 10:41:19;;;;;;;3.38;1.70;;;21.70;98.90;;;;;;4988721;28;20031;-76
2022/07/06 10:43:48;;;;;;;2.47;1.58;;;21.80;98.90;;;;;;4988715;28;20046;-75
2022/07/06 10:46:15;;;;;;;;;;;22.00;98.80;;;;;;4989054;28;20034;-74
2022/07/06 10:48:45;;;;;;;3.35;1.60;;;22.10;98.10;;;;;;4988472;28;19909;-74
2022/07/06 10:51:24;;;;;;;3.45;1.52;;;22.00;98.40;;;;;;4972607;28;20041;-76
2022/07/06 10:54:04;;;;;;;4.53;2.60;;;22.00;98.20;;;;;;4989002;28;20034;-76
2022/07/06 10:56:42;;;;;;;5.25;3.10;;;22.00;98.30;;;;;;4988787;28;20096;-76
2022/07/06 10:59:21;;;;;;;5.00;2.97;;;21.90;98.30;;;;;;4988848;28;20049;-75
2022/07/06 11:02:13;;;;;;;5.13;3.03;;;21.90;98.80;;;;;;4992683;28;20046;-75
2022/07/06 11:04:40;;;;;;;6.40;3.30;;;22.40;98.50;;;;;;4991236;28;20050;-74
2022/07/06 11:07:12;;;;;;;6.20;3.88;;;22.60;97.60;;;;;;4991061;28;20481;-76
2022/07/06 11:09:38;;;;;;;6.40;4.13;;;22.60;96.60;;;;;;5007434;28;20041;-76
2022/07/06 11:12:20;;;;;;;5.60;3.80;;;22.50;97.30;;;;;;4992707;28;20049;-76
2022/07/06 11:14:48;;;;;;;7.82;4.70;;;22.50;97.20;;;;;;4992327;28;20042;-76
2022/07/06 11:17:14;;;;;;;7.20;5.10;;;22.90;97.50;;;;;;4991125;28;20034;-74
2022/07/06 11:19:58;;;;;;;8.65;5.93;;;23.30;95.80;;;;;;5004179;28;20379;-74
2022/07/06 11:22:26;;;;;;;8.63;6.40;;;23.30;96.20;;;;;;4991154;28;20112;-75
2022/07/06 11:24:52;;;;;;;9.13;6.35;;;24.60;93.40;;;;;;4990775;28;20604;-76
2022/07/06 11:27:18;;;;;;;8.73;6.13;;;24.60;92.60;;;;;;4992243;28;20069;-75
2022/07/06 11:29:45;;;;;;;9.18;6.80;;;25.00;92.30;;;;;;5007166;28;20061;-77
2022/07/06 11:32:14;;;;;;;10.75;7.57;;;26.20;88.80;;;;;;4992088;28;20054;-75
2022/07/06 11:34:44;;;;;;;9.93;7.88;;;26.00;83.70;;;;;;4992351;28;20121;-75
2022/07/06 11:37:11;;;;;;;10.68;6.55;;;25.50;89.80;;;;;;4991872;28;20489;-74
2022/07/06 11:39:40;;;;;;;8.45;6.53;;;24.90;89.00;;;;;;4990802;28;20492;-76
2022/07/06 11:42:07;;;;;;;9.30;6.38;;;24.50;91.50;;;;;;4991836;28;20046;-77
2022/07/06 11:44:36;;;;;;;6.63;5.30;;;24.30;91.80;;;;;;4991938;28;20150;-76
2022/07/06 11:47:03;;;;;;;;;;;24.30;92.50;;;;;;4992512;28;20042;-76
2022/07/06 11:49:34;;;;;;;6.68;5.03;;;24.20;93.40;;;;;;4991614;28;20471;-76
2022/07/06 11:52:00;;;;;;;8.07;4.53;;;24.10;93.30;;;;;;4990977;28;20113;-74
2022/07/06 11:54:26;;;;;;;5.30;3.72;;;23.80;92.80;;;;;;4991945;28;20077;-75
2022/07/06 11:56:55;;;;;;;5.25;3.40;;;23.70;93.30;;;;;;4991685;28;20030;-75
2022/07/06 11:59:27;;;;;;;5.10;3.13;;;23.40;93.80;;;;;;4991878;28;20039;-75
2022/07/06 12:02:07;;;;;;;3.95;2.20;;;23.20;94.60;;;;;;4990330;28;20034;-75
2022/07/06 12:04:35;;;;;;;3.17;2.13;;;23.00;94.20;;;;;;4991942;28;20049;-75
2022/07/06 12:07:12;;;;;;;3.80;2.10;;;22.90;94.40;;;;;;4991387;28;20045;-76
2022/07/06 12:09:40;;;;;;;3.45;1.90;;;22.80;94.70;;;;;;4989472;28;20042;-75
2022/07/06 12:12:07;;;;;;;2.60;1.55;;;22.60;95.70;;;;;;4974071;28;20493;-76
2022/07/06 12:14:34;;;;;;;2.20;0.90;;;22.50;96.20;;;;;;4989036;28;20616;-75
2022/07/06 12:17:07;;;;;;;2.15;0.80;;;22.50;97.90;;;;;;4991440;28;20473;-75
2022/07/06 12:19:34;;;;;;;2.22;0.95;;;22.40;98.70;;;;;;4989941;28;20412;-75
2022/07/06 12:22:03;;;;;;;4.57;1.30;;;22.20;99.20;;;;;;4991193;28;20085;-75
2022/07/06 12:24:32;;;;;;;2.50;0.90;;;22.00;99.40;;;;;;4991686;28;20031;-75
2022/07/06 12:27:08;;;;;;;3.20;1.10;;;21.70;99.90;;;;;;4991290;28;20109;-75
2022/07/06 12:29:34;;;;;;;3.15;0.90;;;21.60;99.90;;;;;;4991207;28;20030;-75
2022/07/06 12:32:01;;;;;;;1.77;0.90;;;21.60;99.90;;;;;;4991079;28;20058;-75
2022/07/06 12:34:34;;;;;;;3.20;1.00;;;21.70;99.90;;;;;;4990887;28;20778;-75
2022/07/06 12:37:06;;;;;;;3.03;1.23;;;21.60;99.90;;;;;;4991071;28;20042;-76
2022/07/06 12:39:32;;;;;;;2.50;1.20;;;21.50;99.90;;;;;;4991357;28;20027;-75
2022/07/06 12:42:04;;;;;;;3.33;1.33;;;21.50;99.90;;;;;;4991072;28;20045;-77
2022/07/06 12:44:30;;;;;;;2.13;1.15;;;21.40;99.90;;;;;;4982888;28;20057;-74
2022/07/06 12:47:05;;;;;;;2.65;1.35;;;21.30;99.90;;;;;;4990153;28;20061;-75
2022/07/06 12:49:31;;;;;;;2.22;1.10;;;21.20;99.90;;;;;;4990161;28;20054;-74